Time;durP1;ratioP1;P1;durP2;ratioP2;P2;SDS_P1;SDS_P2;PMS_P1;PMS_P2;Temp;Humidity;BMP_temperature;BMP_pressure;BME280_temperature;BME280_humidity;BME280_pressure;Samples;Min_cycle;Max_cycle;Signal;HPM_P1;HPM_P2
2022/02/22 06:42:28;;;;;;;10.34;1.43;;;22.50;71.40;;;6.20;48.09;97304.75;2322697;27;20164;-67
2022/02/22 06:42:37;;;;;;;5.40;1.45;;;13.90;52.10;;;5.56;49.43;97300.84;177146;27;968;-67
2022/02/22 06:42:43;;;;;;;4.50;1.54;;;13.20;52.70;;;5.08;51.19;97306.75;174959;28;1484;-67
2022/02/22 06:42:49;;;;;;;4.93;1.58;;;12.50;54.30;;;4.73;51.52;97306.84;173558;28;1330;-66
2022/02/22 06:42:55;;;;;;;5.18;1.45;;;12.00;54.40;;;4.43;52.88;97305.44;174835;28;1335;-67
2022/02/22 06:43:02;;;;;;;5.90;1.40;;;11.60;55.20;;;4.10;54.04;97304.28;175108;28;944;-67
2022/02/22 06:43:08;;;;;;;5.56;1.28;;;11.20;55.90;;;3.82;54.86;97300.00;175596;28;1115;-67
2022/02/22 06:43:14;;;;;;;5.38;1.13;;;10.80;56.80;;;3.58;55.67;97308.53;175740;28;885;-67
2022/02/22 06:43:20;;;;;;;4.90;1.25;;;10.50;57.50;;;3.37;56.48;97305.25;175084;28;1369;-66
2022/02/22 06:43:26;;;;;;;4.40;1.40;;;10.10;58.20;;;3.22;57.13;97298.75;175019;28;1493;-67
2022/02/22 06:43:32;;;;;;;3.88;1.52;;;9.80;58.90;;;3.03;57.91;97298.81;175032;28;993;-66
2022/02/22 06:43:38;;;;;;;5.43;1.60;;;9.40;59.60;;;2.89;58.95;97308.09;175503;28;1348;-67
2022/02/22 06:43:44;;;;;;;6.80;1.67;;;9.10;60.40;;;2.73;59.22;97300.72;175051;28;1648;-67
2022/02/22 06:43:50;;;;;;;7.75;1.70;;;8.80;61.20;;;2.61;60.18;97298.38;174397;28;1057;-67
2022/02/22 06:43:55;;;;;;;7.73;1.50;;;8.60;62.10;;;2.49;60.51;97298.50;174208;28;1240;-67
2022/02/22 06:44:02;;;;;;;7.72;1.38;;;8.30;62.90;;;2.40;60.92;97296.72;175003;28;799;-67
2022/02/22 06:44:08;;;;;;;6.46;1.30;;;8.10;63.80;;;2.38;61.57;97296.03;173737;28;1847;-68
2022/02/22 06:44:15;;;;;;;5.20;1.35;;;7.90;64.80;;;2.30;61.58;97295.03;174091;28;1557;-67
2022/02/22 06:44:21;;;;;;;4.02;1.42;;;7.70;65.70;;;2.22;62.06;97309.03;173653;28;883;-67
2022/02/22 06:44:27;;;;;;;3.63;1.47;;;7.40;66.50;;;2.12;62.59;97292.25;173699;28;891;-68
2022/02/22 06:44:36;;;;;;;4.35;1.50;;;7.20;67.40;;;2.11;62.98;97303.84;174247;28;1235;-67
2022/02/22 06:44:42;;;;;;;4.24;1.54;;;7.00;68.10;;;2.00;62.54;97311.94;175035;28;1025;-67
2022/02/22 06:44:48;;;;;;;4.03;1.40;;;6.70;68.90;;;1.81;62.58;97296.00;174714;28;1823;-67
2022/02/22 06:44:53;;;;;;;5.00;1.42;;;6.50;69.30;;;1.67;62.52;97306.00;173445;28;1290;-67
2022/02/22 06:45:00;;;;;;;5.22;1.50;;;6.40;69.70;;;1.58;63.02;97298.88;174395;28;1015;-68
2022/02/22 06:45:09;;;;;;;5.33;1.60;;;6.10;70.10;;;1.49;63.44;97297.06;175076;28;1857;-68
2022/02/22 06:45:15;;;;;;;7.80;1.70;;;5.90;70.60;;;1.46;63.82;97301.75;173570;28;1483;-67
2022/02/22 06:45:21;;;;;;;8.57;1.60;;;5.70;71.50;;;1.40;64.28;97295.19;174969;28;1026;-68
2022/02/22 06:45:27;;;;;;;9.43;1.53;;;5.50;72.00;;;1.38;64.65;97299.81;173631;28;1302;-68
2022/02/22 06:45:33;;;;;;;8.77;1.42;;;5.30;72.60;;;1.36;65.14;97301.75;174208;28;1515;-66
2022/02/22 06:45:39;;;;;;;7.30;1.40;;;5.20;73.20;;;1.33;65.24;97302.03;174251;28;1129;-67
2022/02/22 06:45:45;;;;;;;5.72;1.30;;;5.00;73.80;;;1.24;65.72;97294.88;174310;28;866;-67
2022/02/22 06:45:51;;;;;;;5.40;1.30;;;4.90;74.50;;;1.20;65.74;97299.59;172829;28;875;-68
2022/02/22 06:45:57;;;;;;;5.03;1.20;;;4.70;75.10;;;1.19;65.65;97299.75;173597;28;923;-67
2022/02/22 06:46:03;;;;;;;5.28;1.30;;;4.60;75.60;;;1.11;65.95;97295.09;174662;28;3205;-68
2022/02/22 06:46:09;;;;;;;5.80;1.23;;;4.50;76.10;;;1.00;65.33;97284.56;175324;28;1795;-68
2022/02/22 06:46:15;;;;;;;5.93;1.27;;;4.40;76.70;;;1.06;65.88;97301.75;175146;28;1348;-67
2022/02/22 06:46:21;;;;;;;5.40;1.33;;;4.20;77.20;;;1.05;65.98;97306.22;174912;28;1655;-66
2022/02/22 06:46:27;;;;;;;4.97;1.45;;;4.10;77.60;;;1.03;66.29;97304.69;175081;28;1425;-67
2022/02/22 06:46:33;;;;;;;5.28;1.50;;;4.00;78.10;;;1.00;66.98;97310.25;175059;28;839;-67
2022/02/22 06:46:39;;;;;;;5.47;1.48;;;3.90;78.70;;;0.93;67.57;97295.84;174951;28;1250;-67
2022/02/22 06:46:46;;;;;;;11.18;2.22;;;3.80;79.20;;;0.92;67.52;97300.31;174254;28;986;-69
2022/02/22 06:46:52;;;;;;;11.04;2.26;;;3.80;79.80;;;0.83;67.85;97293.97;174185;28;1168;-67
2022/02/22 06:46:58;;;;;;;10.37;2.20;;;3.70;80.40;;;0.82;67.57;97302.06;174300;28;1041;-67
2022/02/22 06:47:04;;;;;;;10.18;2.40;;;3.60;80.90;;;0.79;68.25;97307.63;172929;28;1112;-67
2022/02/22 06:47:10;;;;;;;8.90;2.30;;;3.50;81.30;;;0.71;68.48;97295.03;173482;28;1454;-68
2022/02/22 06:47:16;;;;;;;3.55;1.55;;;3.40;81.70;;;0.74;68.34;97301.88;173586;28;1346;-67
2022/02/22 06:47:22;;;;;;;4.05;1.55;;;3.30;82.00;;;0.69;68.55;97296.97;173563;28;1209;-67
2022/02/22 06:47:28;;;;;;;4.23;1.53;;;3.20;82.30;;;0.69;68.41;97304.91;173294;28;1300;-68
2022/02/22 06:47:41;;;;;;;4.32;1.33;;;3.20;82.70;;;0.63;68.83;97307.25;173049;28;1580;-67
2022/02/22 06:47:48;;;;;;;5.39;1.49;;;3.10;83.20;;;0.60;69.03;97303.06;174160;28;1584;-68
2022/02/22 06:47:55;;;;;;;4.85;1.50;;;2.90;83.60;;;0.61;69.04;97309.19;173338;28;1407;-68
2022/02/22 06:48:01;;;;;;;4.47;1.60;;;2.80;84.00;;;0.54;68.98;97300.09;173588;28;1460;-68
2022/02/22 06:48:07;;;;;;;4.57;1.60;;;2.80;84.40;;;0.55;69.13;97299.97;174949;28;1356;-67
2022/02/22 06:48:14;;;;;;;3.84;1.64;;;2.70;84.60;;;0.52;68.74;97297.56;174957;28;1203;-67
2022/02/22 06:48:20;;;;;;;4.40;1.67;;;2.60;84.90;;;0.49;68.38;97300.47;174260;28;1425;-67
2022/02/22 06:48:26;;;;;;;5.47;1.65;;;2.60;85.20;;;0.50;67.98;97310.09;173355;28;1720;-67
2022/02/22 06:48:33;;;;;;;7.63;1.80;;;2.50;85.30;;;0.42;67.77;97299.28;173493;28;1672;-67
2022/02/22 06:48:39;;;;;;;9.44;2.24;;;2.50;85.50;;;0.41;67.56;97302.94;174144;28;1547;-67
2022/02/22 06:48:45;;;;;;;9.83;2.23;;;2.40;85.50;;;0.43;67.59;97307.13;175075;28;859;-67
2022/02/22 06:48:51;;;;;;;9.77;2.30;;;2.30;85.60;;;0.44;67.91;97313.25;174965;28;1279;-67
2022/02/22 06:48:57;;;;;;;8.45;2.20;;;2.30;85.70;;;0.44;68.54;97310.59;175094;28;871;-67
2022/02/22 06:49:03;;;;;;;8.57;2.30;;;2.20;85.70;;;0.41;68.64;97300.28;173307;28;1573;-67
2022/02/22 06:49:08;;;;;;;5.85;1.80;;;2.20;86.00;;;0.46;69.48;97311.34;173407;28;1217;-66
2022/02/22 06:49:14;;;;;;;5.57;1.98;;;2.10;86.20;;;0.44;69.52;97307.97;173698;28;1068;-66
2022/02/22 06:49:20;;;;;;;5.72;1.80;;;2.10;86.40;;;0.41;69.77;97300.28;173699;28;773;-67
2022/02/22 06:49:26;;;;;;;5.30;1.80;;;2.10;86.70;;;0.42;69.67;97297.50;174302;28;1342;-67
2022/02/22 06:49:32;;;;;;;4.33;1.60;;;2.00;86.90;;;0.45;70.05;97309.66;173665;28;1006;-67
2022/02/22 06:49:38;;;;;;;3.65;1.55;;;2.00;87.20;;;0.42;70.08;97299.28;175068;28;1314;-67
2022/02/22 06:49:44;;;;;;;3.83;1.48;;;1.90;87.40;;;0.47;70.41;97306.88;173635;28;2893;-67
2022/02/22 06:49:50;;;;;;;4.03;1.67;;;1.90;87.70;;;0.46;70.26;97306.03;172897;28;1029;-66
2022/02/22 06:49:56;;;;;;;4.18;1.60;;;1.90;87.80;;;0.44;70.25;97300.03;173988;28;1347;-66
2022/02/22 06:50:04;;;;;;;4.10;1.70;;;1.80;87.90;;;0.48;70.51;97308.53;174389;28;954;-66
2022/02/22 06:50:12;;;;;;;4.43;1.67;;;1.80;88.20;;;0.47;70.75;97306.88;174276;28;1244;-67
2022/02/22 06:50:18;;;;;;;3.60;1.40;;;1.80;88.50;;;0.45;70.84;97307.00;174093;28;1535;-66
2022/02/22 06:50:25;;;;;;;3.70;1.33;;;1.70;88.70;;;0.47;71.10;97309.53;174251;28;1367;-67
2022/02/22 06:50:31;;;;;;;4.20;1.30;;;1.70;89.00;;;0.47;71.13;97307.69;174377;28;855;-67
2022/02/22 06:50:37;;;;;;;4.25;1.33;;;1.70;89.30;;;0.44;71.03;97307.97;174896;28;1629;-66
2022/02/22 06:50:44;;;;;;;4.53;1.40;;;1.70;89.50;;;0.46;70.57;97316.63;174801;28;1398;-66
2022/02/22 06:50:50;;;;;;;4.90;1.50;;;1.70;89.80;;;0.49;71.18;97312.88;174986;28;974;-66
2022/02/22 06:50:56;;;;;;;4.50;1.42;;;1.70;90.00;;;0.49;71.61;97315.50;172862;28;1193;-67
2022/02/22 06:51:02;;;;;;;4.68;1.45;;;1.70;90.10;;;0.47;71.37;97307.69;173059;28;827;-66
2022/02/22 06:51:08;;;;;;;5.45;1.58;;;1.60;90.10;;;0.47;71.75;97310.34;174214;28;1291;-67
2022/02/22 06:51:14;;;;;;;5.70;1.58;;;1.60;90.20;;;0.49;71.57;97315.50;174372;28;1414;-67
2022/02/22 06:51:20;;;;;;;6.43;1.65;;;1.60;90.30;;;0.47;71.67;97310.34;174407;28;804;-66
2022/02/22 06:51:26;;;;;;;7.10;1.80;;;1.60;90.50;;;0.48;71.94;97311.19;174300;28;1180;-66
2022/02/22 06:51:32;;;;;;;7.97;1.80;;;1.60;90.60;;;0.46;71.93;97311.34;174337;28;867;-66
2022/02/22 06:51:37;;;;;;;8.80;1.67;;;1.60;90.70;;;0.40;71.80;97302.09;173748;28;1040;-66
2022/02/22 06:51:43;;;;;;;9.93;1.60;;;1.50;90.70;;;0.46;71.89;97310.50;174415;28;1038;-66
2022/02/22 06:51:50;;;;;;;9.35;1.55;;;1.50;90.80;;;0.47;71.54;97317.47;175057;28;1403;-66
2022/02/22 06:51:56;;;;;;;9.34;1.56;;;1.50;90.90;;;0.45;72.05;97312.28;174905;28;1086;-66
2022/02/22 06:52:02;;;;;;;7.85;1.60;;;1.50;91.00;;;0.48;71.94;97316.47;175684;28;1436;-67
2022/02/22 06:52:09;;;;;;;7.15;1.75;;;1.50;91.10;;;0.43;71.89;97307.13;174933;28;1313;-67
2022/02/22 06:52:15;;;;;;;6.68;1.95;;;1.50;91.10;;;0.48;71.64;97313.84;174402;28;1519;-66
2022/02/22 06:52:21;;;;;;;6.83;2.10;;;1.50;91.20;;;0.41;71.42;97308.22;172970;28;1057;-67
2022/02/22 06:52:27;;;;;;;7.72;2.13;;;1.50;91.60;;;0.40;71.36;97312.69;174402;28;887;-67
2022/02/22 06:52:33;;;;;;;8.70;2.35;;;1.50;91.30;;;0.37;71.47;97304.13;174290;28;1394;-66
2022/02/22 06:52:40;;;;;;;7.72;2.30;;;1.40;91.40;;;0.33;72.21;97294.78;174257;28;1231;-66
2022/02/22 06:52:46;;;;;;;6.30;2.03;;;1.40;91.40;;;0.38;72.40;97309.31;173447;28;1345;-66
2022/02/22 06:52:52;;;;;;;7.00;2.03;;;1.50;91.60;;;0.37;72.47;97299.69;172687;28;1597;-66
2022/02/22 06:52:59;;;;;;;5.53;1.87;;;1.40;91.60;;;0.38;72.25;97298.72;172373;28;1476;-66
2022/02/22 06:53:05;;;;;;;4.60;1.53;;;1.40;91.70;;;0.35;71.95;97298.16;172287;28;828;-67
2022/02/22 06:53:12;;;;;;;4.63;1.50;;;1.40;91.70;;;0.40;72.22;97312.69;172820;28;1173;-67
2022/02/22 06:53:18;;;;;;;4.92;1.48;;;1.40;91.70;;;0.41;72.14;97308.22;172323;28;1868;-67
2022/02/22 06:53:24;;;;;;;4.25;1.50;;;1.40;91.80;;;0.41;71.95;97305.59;172798;28;1343;-67
2022/02/22 06:53:30;;;;;;;4.95;1.58;;;1.40;91.80;;;0.41;71.88;97308.22;172980;28;926;-66
2022/02/22 06:53:36;;;;;;;6.05;1.83;;;1.40;91.80;;;0.41;71.72;97308.22;173066;28;865;-66
2022/02/22 06:53:42;;;;;;;6.40;2.00;;;1.40;91.80;;;0.42;71.88;97307.25;173607;28;1358;-66
2022/02/22 06:53:48;;;;;;;6.30;2.03;;;1.40;91.90;;;0.44;72.72;97305.31;173019;28;836;-66
2022/02/22 06:53:54;;;;;;;6.75;2.00;;;1.50;91.90;;;0.46;73.11;97302.53;172834;28;1209;-67
2022/02/22 06:54:00;;;;;;;10.13;2.00;;;1.50;92.00;;;0.48;73.20;97303.25;173014;28;819;-66
2022/02/22 06:54:06;;;;;;;13.23;1.90;;;1.50;92.10;;;0.38;73.06;97287.28;172960;28;889;-66
2022/02/22 06:54:12;;;;;;;13.48;1.77;;;1.50;92.20;;;0.48;72.93;97304.09;173424;28;1446;-67
2022/02/22 06:54:18;;;;;;;13.82;1.73;;;1.50;92.20;;;0.51;72.94;97306.50;174383;28;1425;-66
2022/02/22 06:54:24;;;;;;;13.77;1.80;;;1.60;92.30;;;0.52;73.12;97300.19;173509;28;1653;-66
2022/02/22 06:54:30;;;;;;;11.95;1.67;;;1.60;92.70;;;0.51;72.81;97293.25;172918;28;1401;-66
2022/02/22 06:54:35;;;;;;;6.82;1.70;;;1.60;92.40;;;0.48;72.88;97296.13;173646;28;870;-67
2022/02/22 06:54:41;;;;;;;6.03;1.73;;;1.70;92.40;;;0.52;73.25;97294.91;174161;28;1330;-66
2022/02/22 06:54:48;;;;;;;6.25;1.80;;;1.70;92.50;;;0.55;73.34;97293.81;174398;28;799;-67
2022/02/22 06:54:53;;;;;;;6.10;1.97;;;1.70;92.50;;;0.50;72.89;97294.22;174177;28;1155;-67
2022/02/22 06:54:59;;;;;;;5.82;1.92;;;1.80;92.60;;;0.48;73.11;97292.66;174140;28;1700;-66
2022/02/22 06:55:12;;;;;;;4.95;1.80;;;1.80;92.70;;;0.46;72.86;97298.09;172479;28;3218;-67
2022/02/22 06:55:18;;;;;;;6.86;1.71;;;1.80;92.70;;;0.50;73.16;97303.97;173598;28;1481;-66
2022/02/22 06:55:24;;;;;;;6.32;1.42;;;1.90;92.70;;;0.53;73.63;97301.03;173523;28;1227;-67
2022/02/22 06:55:30;;;;;;;6.45;1.67;;;1.90;92.70;;;0.53;73.76;97295.75;173703;28;1144;-67
2022/02/22 06:55:36;;;;;;;7.88;1.70;;;1.90;92.70;;;0.56;73.99;97295.50;174232;28;1485;-67
2022/02/22 06:55:42;;;;;;;5.53;1.80;;;2.00;92.70;;;0.57;74.01;97290.06;173592;28;1876;-66
2022/02/22 06:55:48;;;;;;;5.43;1.70;;;2.00;92.70;;;0.64;74.05;97296.53;173739;28;1330;-66
2022/02/22 06:55:54;;;;;;;5.38;1.77;;;2.00;92.70;;;0.67;73.90;97298.94;173498;28;1151;-67
2022/02/22 06:56:02;;;;;;;5.07;1.60;;;2.00;92.80;;;0.65;73.98;97292.06;173681;28;808;-67
2022/02/22 06:56:08;;;;;;;3.25;1.45;;;2.00;92.70;;;0.71;73.74;97299.50;174234;28;1228;-67
2022/02/22 06:56:14;;;;;;;3.37;1.40;;;2.10;92.70;;;0.68;73.26;97300.59;174376;28;974;-66
2022/02/22 06:56:21;;;;;;;3.53;1.50;;;2.00;92.70;;;0.69;73.30;97307.56;175066;28;923;-67
2022/02/22 06:56:26;;;;;;;3.97;1.43;;;1.90;92.60;;;0.71;73.36;97308.28;173712;28;1312;-66
2022/02/22 06:56:32;;;;;;;3.58;1.30;;;1.90;92.60;;;0.69;73.27;97296.13;173619;28;1220;-66
2022/02/22 06:56:38;;;;;;;3.80;1.50;;;1.80;92.50;;;0.65;73.54;97290.25;173795;28;1175;-67
2022/02/22 06:56:44;;;;;;;3.42;1.42;;;1.80;92.40;;;0.68;73.19;97299.75;174384;28;1060;-66
2022/02/22 06:56:50;;;;;;;3.55;1.38;;;1.80;92.30;;;0.66;73.09;97299.91;174337;28;993;-66
2022/02/22 06:56:56;;;;;;;4.30;1.55;;;1.80;92.30;;;0.66;73.17;97305.19;174972;28;1203;-66
2022/02/22 06:57:02;;;;;;;4.93;1.80;;;1.80;92.20;;;0.56;73.66;97288.41;175044;28;1070;-66
2022/02/22 06:57:08;;;;;;;4.96;1.70;;;1.70;92.20;;;0.64;73.56;97306.28;173473;28;1445;-67
2022/02/22 06:57:15;;;;;;;5.03;1.70;;;1.80;92.20;;;0.62;73.58;97298.44;173649;28;847;-66
2022/02/22 06:57:21;;;;;;;4.27;1.60;;;1.70;92.20;;;0.60;73.45;97308.34;172905;28;1300;-67
2022/02/22 06:57:27;;;;;;;3.87;1.43;;;1.70;92.20;;;0.54;73.47;97295.63;173562;28;1246;-67
2022/02/22 06:57:34;;;;;;;3.83;1.33;;;1.70;92.30;;;0.57;73.53;97303.28;172936;28;1196;-66
2022/02/22 06:57:41;;;;;;;3.66;1.34;;;1.70;92.30;;;0.56;73.11;97306.94;172872;28;1099;-66
2022/02/22 06:57:59;;;;;;;3.58;1.38;;;1.70;92.40;;;0.46;73.24;97292.81;173621;28;1689;-68
2022/02/22 06:58:09;;;;;;;3.30;1.23;;;1.70;92.40;;;0.46;73.47;97300.75;173623;28;1614;-67
2022/02/22 06:58:15;;;;;;;3.30;1.26;;;1.60;92.70;;;0.47;73.31;97298.94;173959;28;2671;-67
2022/02/22 06:58:21;;;;;;;3.42;1.40;;;1.60;92.40;;;0.48;73.22;97309.38;173411;28;1623;-67
2022/02/22 06:58:27;;;;;;;3.17;1.55;;;1.50;92.40;;;0.47;73.34;97304.22;174765;28;1128;-66
2022/02/22 06:58:32;;;;;;;3.53;1.60;;;1.50;92.40;;;0.43;73.45;97304.47;174967;28;1724;-67
2022/02/22 06:58:38;;;;;;;3.10;1.55;;;1.50;92.40;;;0.41;73.45;97303.75;173626;28;1805;-67
2022/02/22 06:58:45;;;;;;;2.80;1.60;;;1.60;92.50;;;0.44;73.39;97297.38;174190;28;1722;-66
2022/02/22 06:58:51;;;;;;;3.16;1.50;;;1.60;92.50;;;0.45;73.36;97303.50;174323;28;3170;-68
2022/02/22 06:58:57;;;;;;;3.10;1.42;;;1.60;92.50;;;0.51;73.15;97311.78;174662;28;1553;-67
2022/02/22 06:59:03;;;;;;;2.57;1.40;;;1.70;92.50;;;0.53;73.20;97311.63;174201;28;1591;-66
2022/02/22 06:59:09;;;;;;;2.37;1.37;;;1.70;92.50;;;0.48;72.63;97300.59;174941;28;1711;-66
2022/02/22 06:59:15;;;;;;;2.57;1.30;;;1.70;92.50;;;0.51;72.58;97314.44;174276;28;1724;-67
2022/02/22 06:59:21;;;;;;;2.28;1.30;;;1.60;92.50;;;0.42;72.09;97300.13;175045;28;1014;-66
2022/02/22 06:59:27;;;;;;;2.15;1.20;;;1.70;92.50;;;0.46;72.15;97307.84;174959;28;1275;-67
2022/02/22 06:59:33;;;;;;;2.33;1.20;;;1.60;92.50;;;0.43;72.32;97301.81;174290;28;909;-66
2022/02/22 06:59:39;;;;;;;2.47;1.23;;;1.70;92.40;;;0.49;72.36;97304.94;174470;28;1069;-66
2022/02/22 06:59:45;;;;;;;2.33;1.13;;;1.60;92.40;;;0.52;71.89;97316.09;174536;28;3051;-66
2022/02/22 06:59:51;;;;;;;2.70;1.20;;;1.70;92.40;;;0.52;71.75;97310.78;173904;28;1626;-66
2022/02/22 06:59:57;;;;;;;3.10;1.23;;;1.70;92.40;;;0.52;71.65;97309.97;175442;28;1402;-67
2022/02/22 07:00:09;;;;;;;3.30;1.30;;;1.70;92.30;;;0.52;72.57;97308.16;175725;28;839;-66
2022/02/22 07:00:18;;;;;;;3.41;1.39;;;1.70;92.30;;;0.58;74.16;97309.44;174372;28;1206;-67
2022/02/22 07:00:24;;;;;;;3.07;1.50;;;1.60;92.20;;;0.66;74.15;97313.13;173290;28;2429;-67
2022/02/22 07:00:30;;;;;;;3.35;1.50;;;1.60;92.30;;;0.66;73.77;97317.59;172866;28;1866;-69
2022/02/22 07:00:41;;;;;;;4.36;1.44;;;1.70;92.80;;;0.67;74.19;97306.88;174092;28;1902;-66
2022/02/22 07:00:50;;;;;;;5.21;1.52;;;1.70;92.50;;;0.65;74.41;97297.38;174795;28;1949;-66
2022/02/22 07:00:56;;;;;;;5.71;1.63;;;1.70;92.60;;;0.74;74.21;97304.53;173811;28;1334;-67
2022/02/22 07:01:02;;;;;;;7.23;1.80;;;1.60;93.00;;;0.74;74.08;97313.31;172817;28;1295;-66
2022/02/22 07:01:08;;;;;;;5.65;1.70;;;1.60;92.80;;;0.80;74.15;97315.44;172670;28;1335;-67
2022/02/22 07:01:14;;;;;;;4.85;1.52;;;1.60;92.80;;;0.80;74.05;97312.78;174631;28;1817;-67
2022/02/22 07:01:20;;;;;;;6.43;1.42;;;1.60;92.90;;;0.82;74.16;97310.88;173612;28;891;-67
2022/02/22 07:01:26;;;;;;;6.35;1.33;;;1.60;93.00;;;0.83;74.36;97309.03;174042;28;1533;-67
2022/02/22 07:01:32;;;;;;;5.63;1.33;;;1.50;93.00;;;0.84;73.71;97316.00;174021;28;1959;-66
2022/02/22 07:01:38;;;;;;;6.15;1.45;;;1.50;93.20;;;0.92;73.71;97312.72;173476;28;1431;-67
2022/02/22 07:01:44;;;;;;;8.60;1.75;;;1.50;93.00;;;0.95;73.71;97309.78;173542;28;2349;-67
2022/02/22 07:01:50;;;;;;;7.13;1.85;;;1.50;93.10;;;0.90;74.02;97304.06;173497;28;1295;-67
2022/02/22 07:01:55;;;;;;;6.70;1.92;;;1.50;93.10;;;0.97;74.41;97308.72;174108;28;1099;-67
2022/02/22 07:02:02;;;;;;;5.97;1.85;;;1.50;93.20;;;1.00;73.96;97312.88;174170;28;1532;-66
2022/02/22 07:02:08;;;;;;;5.27;1.90;;;1.50;93.30;;;0.97;73.94;97307.88;174088;28;2083;-66
2022/02/22 07:02:14;;;;;;;3.25;1.70;;;1.50;93.40;;;1.00;74.02;97304.94;174008;28;3510;-66
2022/02/22 07:02:20;;;;;;;3.08;1.55;;;1.60;93.50;;;1.08;74.15;97316.56;173422;28;1732;-67
2022/02/22 07:02:26;;;;;;;3.90;1.65;;;1.60;93.50;;;1.13;73.99;97316.19;174299;28;1089;-67
2022/02/22 07:02:32;;;;;;;5.60;1.70;;;1.60;93.60;;;1.08;74.19;97313.94;174407;28;915;-66
2022/02/22 07:02:40;;;;;;;5.78;1.77;;;1.60;93.60;;;1.15;73.72;97320.34;174300;28;1109;-66
2022/02/22 07:02:46;;;;;;;6.18;1.90;;;1.60;93.70;;;1.20;73.74;97317.31;174704;28;2364;-67
2022/02/22 07:02:51;;;;;;;6.57;1.90;;;1.60;93.70;;;1.21;73.85;97313.69;174308;28;1352;-67
2022/02/22 07:02:57;;;;;;;5.97;1.70;;;1.60;93.80;;;1.24;73.57;97318.75;173637;28;1284;-66
2022/02/22 07:03:05;;;;;;;5.00;1.63;;;1.60;93.80;;;1.27;73.27;97313.16;174309;28;1270;-66
2022/02/22 07:03:11;;;;;;;4.65;1.53;;;1.60;93.80;;;1.24;73.47;97308.13;173775;28;1340;-67
2022/02/22 07:03:18;;;;;;;4.17;1.53;;;1.70;93.90;;;1.32;73.54;97315.41;175135;28;986;-66
2022/02/22 07:03:24;;;;;;;3.27;1.57;;;1.70;93.90;;;1.25;73.52;97310.63;175618;28;1356;-66
2022/02/22 07:03:30;;;;;;;3.20;1.63;;;1.70;94.00;;;1.31;73.53;97313.72;175067;28;1048;-66
2022/02/22 07:03:36;;;;;;;3.67;1.73;;;1.70;94.10;;;1.35;73.47;97315.97;174966;28;1317;-66
2022/02/22 07:03:43;;;;;;;3.75;1.80;;;1.70;94.10;;;1.38;73.78;97321.03;174177;28;1328;-66
2022/02/22 07:03:49;;;;;;;3.80;1.80;;;1.70;94.10;;;1.38;73.48;97314.88;174408;28;1053;-66
2022/02/22 07:03:55;;;;;;;4.30;1.90;;;1.80;94.20;;;1.43;73.47;97312.66;174119;28;1413;-66
2022/02/22 07:04:01;;;;;;;4.35;1.88;;;1.80;94.20;;;1.45;73.42;97311.53;174346;28;816;-66
2022/02/22 07:04:07;;;;;;;4.93;1.70;;;1.80;94.20;;;1.49;73.24;97312.97;174410;28;915;-67
2022/02/22 07:04:13;;;;;;;5.35;1.73;;;1.80;94.20;;;1.50;72.94;97309.31;174235;28;1137;-66
2022/02/22 07:04:19;;;;;;;6.35;1.88;;;1.90;94.60;;;1.57;73.11;97310.47;173553;28;1203;-66
2022/02/22 07:04:25;;;;;;;6.80;1.85;;;1.90;94.20;;;1.60;72.95;97318.16;173757;28;1486;-66
2022/02/22 07:04:31;;;;;;;7.78;2.08;;;1.90;94.30;;;1.64;72.47;97316.06;173726;28;1449;-67
2022/02/22 07:04:37;;;;;;;7.50;2.25;;;1.90;94.20;;;1.64;72.87;97311.59;174044;28;1650;-66
2022/02/22 07:04:42;;;;;;;7.27;2.20;;;1.90;94.20;;;1.69;72.85;97314.69;174823;28;1347;-66
2022/02/22 07:04:48;;;;;;;6.05;2.08;;;1.90;94.20;;;1.70;72.67;97312.88;175086;28;970;-66
2022/02/22 07:04:54;;;;;;;5.75;2.05;;;1.90;94.20;;;1.79;72.46;97308.56;174987;28;1224;-66
2022/02/22 07:05:00;;;;;;;4.57;1.80;;;2.00;94.20;;;1.84;72.44;97316.94;174953;28;1240;-67
2022/02/22 07:05:09;;;;;;;4.30;1.70;;;2.00;94.20;;;1.85;72.12;97308.00;172941;28;800;-66
2022/02/22 07:05:18;;;;;;;4.46;1.59;;;2.00;94.20;;;1.94;72.28;97312.50;173638;28;1398;-66
2022/02/22 07:05:25;;;;;;;4.51;1.61;;;2.00;94.20;;;2.00;72.13;97310.13;173481;28;1354;-67
2022/02/22 07:05:32;;;;;;;4.72;1.74;;;2.00;94.10;;;2.01;71.93;97310.97;173643;28;994;-66
2022/02/22 07:05:38;;;;;;;5.20;1.83;;;2.10;94.20;;;2.05;71.52;97315.03;173907;28;1553;-66
2022/02/22 07:05:44;;;;;;;5.35;2.00;;;2.10;94.20;;;2.09;71.51;97314.59;175029;28;895;-66
2022/02/22 07:05:50;;;;;;;5.00;1.90;;;2.10;94.20;;;2.14;71.40;97319.50;175092;28;831;-66
2022/02/22 07:05:56;;;;;;;5.30;1.93;;;2.10;94.20;;;2.17;71.35;97311.28;174222;28;1094;-66
2022/02/22 07:06:02;;;;;;;5.25;2.05;;;2.10;94.20;;;2.14;71.67;97300.91;174374;28;899;-65
2022/02/22 07:06:08;;;;;;;5.50;2.13;;;2.10;94.20;;;2.24;71.28;97320.34;173387;28;2022;-66
2022/02/22 07:06:14;;;;;;;6.28;2.35;;;2.20;94.20;;;2.23;71.14;97320.50;174165;28;1470;-67
2022/02/22 07:06:20;;;;;;;8.00;2.30;;;2.20;94.20;;;2.16;71.05;97312.25;174394;28;966;-66
2022/02/22 07:06:25;;;;;;;8.55;2.30;;;2.30;94.20;;;2.28;70.83;97316.41;173559;28;1285;-68
2022/02/22 07:06:33;;;;;;;8.32;2.20;;;2.20;94.20;;;2.22;70.28;97313.50;174388;28;843;-66
2022/02/22 07:06:39;;;;;;;7.52;1.93;;;2.30;94.20;;;2.32;70.19;97320.50;173913;28;2956;-66
2022/02/22 07:06:44;;;;;;;6.97;1.67;;;2.30;94.20;;;2.35;70.04;97320.19;174291;28;1309;-66
2022/02/22 07:06:50;;;;;;;6.57;1.73;;;2.30;94.10;;;2.36;70.31;97318.38;174215;28;1377;-67
2022/02/22 07:06:56;;;;;;;5.75;1.58;;;2.30;94.10;;;2.37;70.38;97326.22;173487;28;2382;-67
2022/02/22 07:07:06;;;;;;;5.30;1.60;;;2.40;94.10;;;2.35;70.15;97317.53;174183;28;1363;-67
2022/02/22 07:07:12;;;;;;;5.09;1.60;;;2.40;94.10;;;2.36;70.15;97313.91;175605;28;1470;-66
2022/02/22 07:07:18;;;;;;;3.78;1.50;;;2.50;94.10;;;2.44;70.11;97322.00;174965;28;1361;-66
2022/02/22 07:07:25;;;;;;;3.67;1.45;;;2.50;94.10;;;2.47;69.68;97324.41;174925;28;1340;-66
2022/02/22 07:07:31;;;;;;;4.35;1.33;;;2.50;94.00;;;2.46;69.72;97330.69;173620;28;1245;-66
2022/02/22 07:07:37;;;;;;;5.28;1.20;;;2.60;94.00;;;2.38;69.59;97311.97;173783;28;844;-66
2022/02/22 07:07:44;;;;;;;5.50;1.27;;;2.60;94.00;;;2.42;69.78;97323.97;174371;28;930;-66
2022/02/22 07:07:50;;;;;;;5.07;1.20;;;2.70;94.30;;;2.43;69.90;97323.00;175067;28;945;-66
2022/02/22 07:07:57;;;;;;;5.16;1.26;;;2.70;93.90;;;2.47;69.81;97321.75;173416;28;1366;-66
2022/02/22 07:08:04;;;;;;;3.84;1.38;;;2.80;93.90;;;2.52;69.77;97322.16;173667;28;863;-66
2022/02/22 07:08:10;;;;;;;3.56;1.42;;;2.90;93.90;;;2.61;69.60;97330.25;174108;28;1286;-66
2022/02/22 07:08:16;;;;;;;3.97;1.73;;;3.00;93.90;;;2.64;69.64;97329.97;173678;28;958;-67
2022/02/22 07:08:21;;;;;;;4.47;1.97;;;3.10;94.20;;;2.63;69.53;97329.16;173641;28;1175;-66
2022/02/22 07:08:28;;;;;;;4.28;2.00;;;3.20;93.90;;;2.62;69.47;97326.63;173412;28;1965;-66
2022/02/22 07:08:34;;;;;;;3.80;1.98;;;3.30;93.90;;;2.66;69.63;97323.53;173627;28;923;-66
2022/02/22 07:08:40;;;;;;;3.80;2.10;;;3.50;93.90;;;2.75;69.02;97335.97;172918;28;1110;-67
2022/02/22 07:08:45;;;;;;;3.00;1.85;;;3.60;93.90;;;2.73;69.26;97329.13;172997;28;1457;-66
2022/02/22 07:08:51;;;;;;;3.17;1.75;;;3.70;93.80;;;2.70;69.10;97330.22;172970;28;788;-66
2022/02/22 07:08:57;;;;;;;3.75;1.70;;;3.90;93.80;;;2.71;69.04;97333.72;173525;28;1249;-67
2022/02/22 07:09:03;;;;;;;4.55;1.75;;;4.00;93.70;;;2.71;69.03;97334.56;174259;28;1151;-66
2022/02/22 07:09:09;;;;;;;5.03;1.70;;;4.20;93.60;;;2.74;68.63;97329.00;174180;28;1378;-66
2022/02/22 07:09:16;;;;;;;8.32;1.80;;;4.30;93.50;;;2.80;68.69;97336.38;173613;28;1532;-67
2022/02/22 07:09:21;;;;;;;8.15;1.83;;;4.50;93.40;;;2.84;68.47;97331.63;174859;28;1661;-66
2022/02/22 07:09:28;;;;;;;8.95;1.90;;;4.60;93.20;;;2.85;69.00;97328.00;173073;28;1026;-66
2022/02/22 07:09:34;;;;;;;9.16;2.04;;;4.80;93.30;;;2.92;69.07;97335.25;173019;28;1018;-66
2022/02/22 07:09:40;;;;;;;8.93;2.10;;;5.00;92.80;;;2.94;69.08;97335.94;172778;28;1606;-67
2022/02/22 07:09:46;;;;;;;6.72;2.15;;;5.20;92.70;;;2.94;68.59;97335.94;173625;28;3156;-68
2022/02/22 07:09:52;;;;;;;6.60;2.17;;;5.30;92.60;;;3.01;68.16;97338.84;173967;28;1755;-66
2022/02/22 07:09:58;;;;;;;5.35;2.17;;;5.50;92.40;;;3.08;68.45;97339.13;174849;28;1243;-66
2022/02/22 07:10:07;;;;;;;5.15;2.15;;;5.60;92.10;;;3.12;68.16;97337.84;175036;28;870;-67
2022/02/22 07:10:13;;;;;;;5.60;2.10;;;5.80;91.90;;;3.17;67.61;97338.25;174038;28;1789;-66
2022/02/22 07:10:19;;;;;;;6.18;2.03;;;6.00;91.60;;;3.18;67.75;97338.09;173423;28;1669;-67
2022/02/22 07:10:27;;;;;;;6.32;2.08;;;6.10;91.30;;;3.21;67.52;97343.13;174231;28;1417;-66